Pagina principale
METAR-TAF:

METAR-TAF

Aeroporti :

Aeroporto di Avignone Caumont

Avignone, Francia

latitudine: 43-54-26N, longitudine: 004-54-07E, altezza: 38 m

Osservazione

Il bollettino è stato emesso 45 minuti fa, alle 07:30 UTC
Vento 12 kt da nord/nord-ovest
Temperature 20°C
Umidità 64%
Pressione 1018 hPa
Visibilità 10 km o più
Nuvoloso ad un'altezza di 5800 ft
Nuvoloso ad un'altezza di 6800 ft
Cielo coperto ad un'altezza di 15000 ft

METAR: LFMV 200730Z AUTO 34012KT 9999 BKN058 BKN068 OVC150 20/13 Q1018 NOSIG

Ora: 10:15 (08:15 UTC)

Previsione

Il bollettino è stato emesso 6 ore e 15 minuti fa, alle 02:00 UTC
Previsione valida dal 20 alle 03 UTC al 21 alle 03 UTC
Vento 15 kt da nord/nord-ovest
Visibilità 10 km o più
nessuna nube inferiore a 1500 m e nessun cumulonembo
Temporaneamente
dal 20 alle 15 UTC al 21 alle 03 UTC
Vento 25 kt da nord/nord-ovest con raffiche fino a 35 kt

TAF: LFMV 200200Z 2003/2103 34015KT CAVOK TEMPO 2015/2103 34025G35KT

Osservazioni e previsioni meteorologiche di più di 4000 aeroporti (messaggi METAR e TAF).

Le stazioni disponibili sono rappresentate dai dischi gialli e rossi sulla carta.

Puntare il mouse per vedere il nome della stazione.

Clicca sopra per visualizzare le osservazioni e previsioni meteorologiche.

Per cambiare la mappa : fare clic sui pulsanti verdi con una croce nera per ingrandire, il pulsante verde con un trattino per diminuire, o sulla freccia verde per le mappe adiacenti.


METAR-TAF: